Time;durP1;ratioP1;P1;durP2;ratioP2;P2;SDS_P1;SDS_P2;PMS_P1;PMS_P2;Temp;Humidity;BMP_temperature;BMP_pressure;BME280_temperature;BME280_humidity;BME280_pressure;Samples;Min_cycle;Max_cycle;Signal;HPM_P1;HPM_P2
2022/07/03 00:00:08;;;;;;;2.88;2.33;;;;;;;18.46;47.90;101432.25;7395318;19;20035;-69
2022/07/03 00:02:37;;;;;;;2.28;2.08;;;;;;;18.45;47.99;101432.34;7393267;19;20426;-70
2022/07/03 00:05:06;;;;;;;3.13;2.20;;;;;;;18.44;47.98;101425.28;7393567;19;20078;-69
2022/07/03 00:07:39;;;;;;;7.93;2.30;;;;;;;18.40;48.35;101430.75;7393088;19;20011;-69
2022/07/03 00:10:09;;;;;;;3.65;2.20;;;;;;;18.38;48.13;101432.59;7393798;19;20029;-70
2022/07/03 00:12:37;;;;;;;3.33;2.08;;;;;;;18.35;48.44;101424.78;7393566;19;20022;-70
2022/07/03 00:15:07;;;;;;;3.45;2.22;;;;;;;18.32;48.55;101432.88;7393529;19;20019;-70
2022/07/03 00:17:35;;;;;;;2.38;1.88;;;;;;;18.27;48.70;101421.59;7393954;19;20022;-69
2022/07/03 00:20:04;;;;;;;3.45;2.28;;;;;;;18.25;48.66;101426.13;7394822;19;20086;-70
2022/07/03 00:22:35;;;;;;;2.80;2.17;;;;;;;18.20;48.92;101423.66;7397611;19;20501;-70
2022/07/03 00:25:08;;;;;;;2.70;2.40;;;;;;;18.17;48.92;101422.91;7402146;19;20074;-70
2022/07/03 00:27:37;;;;;;;3.47;2.17;;;;;;;18.14;48.91;101425.72;7400190;19;20018;-70
2022/07/03 00:30:07;;;;;;;6.10;2.58;;;;;;;18.10;49.12;101418.78;7399421;19;20018;-70
2022/07/03 00:32:40;;;;;;;2.28;1.85;;;;;;;18.04;48.92;101412.81;7402741;19;20018;-70
2022/07/03 00:35:10;;;;;;;4.83;2.70;;;;;;;18.00;49.37;101411.22;7402635;19;20074;-70
2022/07/03 00:37:38;;;;;;;4.18;2.30;;;;;;;17.98;49.48;101410.41;7400258;19;20018;-69
2022/07/03 00:40:11;;;;;;;3.67;2.33;;;;;;;17.95;49.47;101409.72;7399739;19;20026;-69
2022/07/03 00:42:41;;;;;;;2.47;2.25;;;;;;;17.91;49.56;101407.13;7401525;19;20032;-70
2022/07/03 00:45:11;;;;;;;3.58;1.83;;;;;;;17.91;49.46;101403.63;7402237;19;20025;-70
2022/07/03 00:47:40;;;;;;;2.88;2.58;;;;;;;17.87;49.84;101402.88;7399489;19;20516;-69
2022/07/03 00:50:10;;;;;;;2.55;2.30;;;;;;;17.85;49.90;101402.06;7401172;19;20427;-70
2022/07/03 00:52:40;;;;;;;4.45;2.55;;;;;;;17.82;49.83;101396.91;7398851;19;20070;-70
2022/07/03 00:55:19;;;;;;;3.08;2.55;;;;;;;17.80;50.09;101398.75;7399536;19;20370;-69
2022/07/03 00:57:50;;;;;;;3.25;2.35;;;;;;;17.76;49.89;101394.50;7399579;19;20025;-70
2022/07/03 01:00:19;;;;;;;4.15;2.60;;;;;;;17.73;50.24;101398.16;7401686;19;20018;-70
2022/07/03 01:02:55;;;;;;;4.82;2.67;;;;;;;17.69;50.19;101390.38;7398587;19;20074;-70
2022/07/03 01:05:30;;;;;;;3.35;2.60;;;;;;;17.66;50.34;101391.38;7398186;19;20028;-70
2022/07/03 01:08:10;;;;;;;3.55;2.65;;;;;;;17.64;50.41;101392.34;7398607;19;20025;-69
2022/07/03 01:10:49;;;;;;;3.28;2.70;;;;;;;17.59;50.85;101387.22;7400544;19;20015;-69
2022/07/03 01:13:27;;;;;;;3.00;2.80;;;;;;;17.56;50.85;101384.72;7398654;19;20078;-69
2022/07/03 01:16:06;;;;;;;2.90;2.60;;;;;;;17.52;51.24;101383.97;7398506;19;20018;-69
2022/07/03 01:18:41;;;;;;;3.40;2.85;;;;;;;17.50;51.18;101384.97;7397944;19;20022;-69
2022/07/03 01:21:12;;;;;;;3.60;2.83;;;;;;;17.47;51.10;101382.44;7397692;19;20364;-69
2022/07/03 01:24:05;;;;;;;2.80;2.60;;;;;;;17.43;51.45;101368.44;7400922;19;20368;-70
2022/07/03 01:26:40;;;;;;;4.93;2.75;;;;;;;17.39;51.33;101373.00;7398035;19;20078;-69
2022/07/03 01:29:15;;;;;;;3.45;3.15;;;;;;;17.36;51.42;101370.50;7400095;19;20074;-70
2022/07/03 01:31:48;;;;;;;4.43;3.38;;;;;;;17.34;51.52;101371.44;7400440;19;20018;-70
2022/07/03 01:34:21;;;;;;;3.42;2.42;;;;;;;17.31;51.39;101364.47;7396157;19;20379;-69
2022/07/03 01:36:52;;;;;;;8.82;3.00;;;;;;;17.28;51.68;101369.91;7399058;19;20439;-69
2022/07/03 01:39:24;;;;;;;4.97;2.55;;;;;;;17.27;51.56;101373.47;7398963;19;20040;-69
2022/07/03 01:41:58;;;;;;;4.90;2.83;;;;;;;17.24;51.64;101368.31;7397012;19;20420;-70
2022/07/03 01:44:28;;;;;;;5.40;3.03;;;;;;;17.21;52.00;101361.34;7399926;19;20019;-69
2022/07/03 01:46:59;;;;;;;3.47;2.67;;;;;;;17.21;52.08;101360.47;7398357;19;20018;-69
2022/07/03 01:49:31;;;;;;;3.05;2.75;;;;;;;17.19;52.08;101357.03;7400083;19;20026;-70
2022/07/03 01:52:01;;;;;;;3.83;2.97;;;;;;;17.18;52.16;101355.31;7399177;19;20087;-70
2022/07/03 01:54:32;;;;;;;3.10;2.80;;;;;;;17.17;52.28;101358.88;7398540;19;20843;-70
2022/07/03 01:57:07;;;;;;;3.45;3.15;;;;;;;17.16;52.29;101354.50;7398854;19;20010;-69
2022/07/03 01:59:36;;;;;;;4.80;2.60;;;;;;;17.16;52.28;101351.84;7398406;19;20034;-69
2022/07/03 02:02:17;;;;;;;3.20;2.67;;;;;;;17.16;52.67;101346.53;7396654;19;20407;-70
2022/07/03 02:05:01;;;;;;;5.28;2.80;;;;;;;17.14;52.90;101346.59;7397276;19;20373;-69
2022/07/03 02:07:38;;;;;;;2.92;2.72;;;;;;;17.12;52.53;101356.38;7397973;19;20031;-69
2022/07/03 02:10:09;;;;;;;3.13;2.72;;;;;;;17.09;52.71;101348.56;7397092;19;20025;-70
2022/07/03 02:12:50;;;;;;;3.55;2.83;;;;;;;17.07;52.82;101358.38;7396401;19;20457;-70
2022/07/03 02:15:20;;;;;;;4.18;2.90;;;;;;;17.03;53.10;101344.38;7398866;19;20418;-69
2022/07/03 02:17:50;;;;;;;3.60;3.30;;;;;;;17.02;53.27;101345.31;7396120;19;20096;-69
2022/07/03 02:20:19;;;;;;;3.35;3.05;;;;;;;17.00;53.37;101347.16;7396113;19;20031;-70
2022/07/03 02:22:59;;;;;;;4.60;3.40;;;;;;;16.96;53.35;101342.91;7396386;19;20090;-70
2022/07/03 02:25:36;;;;;;;4.07;3.20;;;;;;;16.96;53.42;101348.19;7399005;19;20035;-70
2022/07/03 02:28:14;;;;;;;3.75;3.45;;;;;;;16.92;53.46;101349.22;7396327;19;20032;-70
2022/07/03 02:30:52;;;;;;;4.57;3.20;;;;;;;16.89;53.73;101354.63;7398685;19;20018;-70
2022/07/03 02:33:24;;;;;;;3.45;3.15;;;;;;;16.84;53.82;101345.97;7397917;19;20014;-70
2022/07/03 02:35:57;;;;;;;3.65;3.35;;;;;;;16.80;53.84;101347.88;7398534;19;20027;-69
2022/07/03 02:38:27;;;;;;;5.28;3.47;;;;;;;16.72;53.89;101345.53;7395945;19;20022;-69
2022/07/03 02:41:00;;;;;;;4.35;3.95;;;;;;;16.70;54.40;101346.50;7397983;19;20027;-70
2022/07/03 02:43:40;;;;;;;3.45;3.15;;;;;;;16.66;54.30;101350.22;7397636;19;20532;-69
2022/07/03 02:48:59;;;;;;;6.35;3.85;;;;;;;16.52;54.54;101351.56;7395108;19;20011;-70
2022/07/03 02:51:34;;;;;;;;;;;;;;;16.47;54.85;101348.22;7398562;19;20014;-70
2022/07/03 02:54:18;;;;;;;5.03;4.03;;;;;;;16.38;54.93;101352.06;7395496;19;20363;-69
2022/07/03 02:57:02;;;;;;;3.47;3.10;;;;;;;16.32;54.89;101349.66;7396607;19;20086;-69
2022/07/03 02:59:47;;;;;;;3.53;3.00;;;;;;;16.28;55.19;101345.41;7395741;19;20525;-69
2022/07/03 03:02:28;;;;;;;5.47;3.08;;;;;;;16.24;55.22;101349.94;7395990;19;20015;-69
2022/07/03 03:05:01;;;;;;;3.63;3.33;;;;;;;16.20;55.11;101350.09;7397609;19;20078;-69
2022/07/03 03:07:36;;;;;;;4.30;3.78;;;;;;;16.16;55.45;101351.97;7396490;19;20021;-69
2022/07/03 03:10:05;;;;;;;4.72;3.35;;;;;;;16.12;55.69;101351.25;7397273;19;20018;-69
2022/07/03 03:12:39;;;;;;;4.15;3.10;;;;;;;16.07;56.06;101347.00;7397591;19;20022;-69
2022/07/03 03:15:14;;;;;;;5.35;3.78;;;;;;;16.05;56.08;101346.19;7396693;19;20014;-69
2022/07/03 03:17:45;;;;;;;4.25;3.85;;;;;;;16.02;56.34;101351.59;7395595;19;20082;-69
2022/07/03 03:20:18;;;;;;;3.70;3.40;;;;;;;15.99;56.16;101357.88;7395558;19;20079;-69
2022/07/03 03:23:09;;;;;;;4.22;3.88;;;;;;;15.94;56.27;101358.03;7396481;19;20011;-70
2022/07/03 03:25:38;;;;;;;4.13;3.72;;;;;;;15.93;56.71;101356.28;7396721;19;20015;-69
2022/07/03 03:28:07;;;;;;;4.18;3.72;;;;;;;15.90;56.65;101360.84;7394997;19;20485;-69
2022/07/03 03:30:38;;;;;;;4.88;3.95;;;;;;;15.86;56.68;101349.50;7396539;19;20027;-69
2022/07/03 03:33:09;;;;;;;4.70;3.80;;;;;;;15.80;56.88;101355.81;7395483;19;20018;-69
2022/07/03 03:35:38;;;;;;;4.70;4.07;;;;;;;15.77;57.43;101358.56;7394316;19;20503;-69
2022/07/03 03:38:08;;;;;;;18.15;12.45;;;;;;;15.75;57.20;101352.47;7394200;19;20426;-69
2022/07/03 03:40:37;;;;;;;8.45;6.72;;;;;;;15.76;57.48;101356.84;7394225;19;20010;-69
2022/07/03 03:43:06;;;;;;;10.25;5.43;;;;;;;15.75;57.58;101355.09;7394449;19;20011;-69
2022/07/03 03:45:38;;;;;;;5.30;4.63;;;;;;;15.76;57.73;101350.69;7396148;19;20027;-70
2022/07/03 03:48:08;;;;;;;5.20;4.53;;;;;;;15.75;57.82;101349.81;7394732;19;20026;-69
2022/07/03 03:50:37;;;;;;;4.65;3.60;;;;;;;15.76;57.79;101348.06;7396547;19;20021;-69
2022/07/03 03:53:05;;;;;;;4.28;3.90;;;;;;;15.76;57.86;101345.41;7394003;19;20433;-70
2022/07/03 03:55:34;;;;;;;5.60;3.78;;;;;;;15.76;58.11;101342.75;7392827;19;20015;-69
2022/07/03 03:58:04;;;;;;;7.00;4.30;;;;;;;15.76;58.04;101350.69;7393722;19;20015;-69
2022/07/03 04:00:33;;;;;;;5.25;3.85;;;;;;;15.76;57.98;101353.34;7394934;19;20033;-69
2022/07/03 04:03:04;;;;;;;4.60;4.00;;;;;;;15.77;58.20;101344.47;7393833;19;20082;-69
2022/07/03 04:05:32;;;;;;;4.63;4.15;;;;;;;15.77;58.20;101341.81;7395827;19;20014;-70
2022/07/03 04:08:01;;;;;;;3.90;3.58;;;;;;;15.78;58.48;101336.50;7393119;19;20018;-69
2022/07/03 04:10:29;;;;;;;6.80;4.03;;;;;;;15.80;58.48;101334.66;7393116;19;20140;-69
2022/07/03 04:12:58;;;;;;;5.70;3.92;;;;;;;15.82;58.39;101341.72;7395130;19;20027;-70
2022/07/03 04:15:26;;;;;;;4.43;3.95;;;;;;;15.84;58.48;101334.59;7395095;19;20031;-69
2022/07/03 04:17:55;;;;;;;4.90;4.03;;;;;;;15.86;58.36;101330.97;7393656;19;20074;-69
2022/07/03 04:20:26;;;;;;;4.10;3.78;;;;;;;15.88;58.70;101325.63;7392397;19;20015;-70
2022/07/03 04:22:54;;;;;;;5.60;4.10;;;;;;;15.89;58.62;101325.56;7392399;19;20439;-69
2022/07/03 04:25:23;;;;;;;4.70;4.15;;;;;;;15.91;58.74;101321.09;7393805;19;20090;-69
2022/07/03 04:27:51;;;;;;;4.38;4.00;;;;;;;15.94;58.64;101320.97;7392858;19;20380;-70
2022/07/03 04:30:20;;;;;;;5.00;4.53;;;;;;;15.98;58.58;101328.81;7394029;19;20414;-70
2022/07/03 04:32:56;;;;;;;9.38;7.22;;;;;;;16.01;58.47;101328.69;7392667;19;20018;-70
2022/07/03 04:35:27;;;;;;;22.27;15.07;;;;;;;16.04;58.85;101328.59;7395054;19;20092;-69
2022/07/03 04:37:56;;;;;;;6.47;5.35;;;;;;;16.07;58.56;101328.47;7393222;19;20011;-69
2022/07/03 04:40:24;;;;;;;8.30;5.93;;;;;;;16.10;58.54;101326.59;7392772;19;20018;-69
2022/07/03 04:42:53;;;;;;;5.43;4.32;;;;;;;16.15;58.60;101331.75;7394418;19;20035;-69
2022/07/03 04:45:28;;;;;;;4.32;3.92;;;;;;;16.20;58.84;101328.91;7391871;19;20015;-69
2022/07/03 04:47:56;;;;;;;5.20;4.70;;;;;;;16.24;58.82;101334.03;7392899;19;20018;-69
2022/07/03 04:50:28;;;;;;;6.63;5.88;;;;;;;16.28;58.52;101330.34;7392095;19;20035;-70
2022/07/03 04:52:56;;;;;;;6.50;4.47;;;;;;;16.32;58.57;101328.47;7394462;19;20019;-69
2022/07/03 04:55:25;;;;;;;4.28;3.78;;;;;;;16.38;58.54;101330.91;7392544;19;20033;-69
2022/07/03 04:57:53;;;;;;;4.53;3.50;;;;;;;16.45;58.45;101326.22;7392127;19;20018;-69
2022/07/03 05:00:22;;;;;;;5.32;3.72;;;;;;;16.51;58.67;101322.50;7392561;19;20026;-69
2022/07/03 05:02:50;;;;;;;6.45;4.45;;;;;;;16.56;58.93;101323.19;7393788;19;20375;-69
2022/07/03 05:05:19;;;;;;;6.45;3.85;;;;;;;16.61;58.74;101322.06;7393671;19;20027;-69
2022/07/03 05:07:50;;;;;;;5.78;4.80;;;;;;;16.69;58.87;101312.97;7392452;19;20018;-69
2022/07/03 05:10:19;;;;;;;4.70;4.05;;;;;;;16.76;58.79;101309.19;7400642;19;20010;-70
2022/07/03 05:12:47;;;;;;;4.30;3.90;;;;;;;16.83;59.04;101310.66;7400872;19;20014;-70
2022/07/03 05:15:15;;;;;;;5.13;3.90;;;;;;;16.90;58.93;101304.19;7400296;19;20418;-69
2022/07/03 05:17:44;;;;;;;4.10;3.70;;;;;;;16.99;59.00;101310.09;7397461;19;20018;-69
2022/07/03 05:20:30;;;;;;;5.70;4.15;;;;;;;17.05;58.93;101300.13;7397303;19;20018;-69
2022/07/03 05:23:03;;;;;;;4.80;3.58;;;;;;;17.16;58.67;101299.69;7397590;19;20011;-69
2022/07/03 05:25:34;;;;;;;4.67;3.20;;;;;;;17.25;58.62;101306.41;7400926;19;20015;-69
2022/07/03 05:28:04;;;;;;;4.28;3.53;;;;;;;17.33;58.48;101299.00;7398455;19;20031;-69
2022/07/03 05:30:32;;;;;;;3.53;3.22;;;;;;;17.44;58.26;101306.50;7400298;19;20019;-66
2022/07/03 05:33:01;;;;;;;4.53;3.20;;;;;;;17.55;58.36;101303.41;7400129;19;20078;-65
2022/07/03 05:35:29;;;;;;;3.47;2.92;;;;;;;17.67;57.71;101297.56;7399946;19;20022;-66
2022/07/03 05:38:00;;;;;;;4.88;2.85;;;;;;;17.84;57.67;101293.31;7398186;19;20018;-67
2022/07/03 05:40:26;;;;;;;3.38;2.70;;;;;;;17.98;57.72;101284.78;7398802;19;20094;-67
2022/07/03 05:42:55;;;;;;;3.25;2.88;;;;;;;18.14;57.26;101282.31;7397786;19;20019;-67
2022/07/03 05:45:24;;;;;;;2.80;2.50;;;;;;;18.30;56.72;101280.69;7397468;19;20023;-66
2022/07/03 05:47:52;;;;;;;3.45;2.47;;;;;;;18.48;55.86;101283.44;7397376;19;20019;-67
2022/07/03 05:50:21;;;;;;;3.13;2.47;;;;;;;18.62;55.44;101282.78;7399299;19;20025;-66
2022/07/03 05:52:49;;;;;;;3.08;2.30;;;;;;;18.76;55.47;101277.69;7399511;19;20090;-66
2022/07/03 05:55:34;;;;;;;4.15;2.70;;;;;;;18.89;54.99;101267.31;7398010;19;20024;-66
2022/07/03 05:58:02;;;;;;;3.08;2.60;;;;;;;19.02;54.40;101278.25;7397777;19;20090;-67
2022/07/03 06:00:31;;;;;;;2.78;2.55;;;;;;;19.14;54.07;101282.13;7396489;19;20544;-67
2022/07/03 06:03:01;;;;;;;2.78;2.20;;;;;;;19.27;53.51;101291.22;7398862;19;20505;-66
2022/07/03 06:05:30;;;;;;;2.38;2.15;;;;;;;19.41;52.95;101289.66;7399455;19;20358;-66
2022/07/03 06:07:58;;;;;;;2.67;2.40;;;;;;;19.52;52.98;101284.66;7397204;19;20099;-67
2022/07/03 06:10:30;;;;;;;5.55;2.42;;;;;;;19.62;52.26;101277.91;7398677;19;20485;-65
2022/07/03 06:12:58;;;;;;;2.78;2.10;;;;;;;19.76;52.34;101269.22;7399415;19;20078;-66
2022/07/03 06:15:27;;;;;;;3.20;2.20;;;;;;;19.89;51.66;101272.16;7398790;19;20018;-66
2022/07/03 06:17:55;;;;;;;4.10;2.22;;;;;;;20.01;51.05;101260.81;7396109;19;20418;-66
2022/07/03 06:20:24;;;;;;;3.30;2.13;;;;;;;20.16;50.93;101267.13;7397127;19;20485;-66
2022/07/03 06:22:52;;;;;;;3.95;2.05;;;;;;;20.29;50.80;101275.31;7398624;19;20031;-67
2022/07/03 06:25:21;;;;;;;4.10;2.47;;;;;;;20.41;50.25;101276.47;7398463;19;20031;-67
2022/07/03 06:27:52;;;;;;;5.07;3.80;;;;;;;20.53;50.32;101277.59;7396750;19;20077;-66
2022/07/03 06:30:20;;;;;;;3.35;2.70;;;;;;;20.61;49.84;101270.03;7398688;19;20027;-67
2022/07/03 06:32:49;;;;;;;2.83;2.50;;;;;;;20.73;49.79;101265.00;7396223;19;20027;-67
2022/07/03 06:35:17;;;;;;;2.15;1.95;;;;;;;20.85;49.12;101268.75;7398119;19;20085;-66
2022/07/03 06:37:46;;;;;;;4.75;2.33;;;;;;;20.95;49.18;101257.50;7396578;19;20036;-67
2022/07/03 06:40:14;;;;;;;4.03;2.75;;;;;;;21.05;49.00;101256.97;7397391;19;20023;-66
2022/07/03 06:42:43;;;;;;;2.92;2.53;;;;;;;21.15;48.93;101255.47;7395804;19;20018;-66
2022/07/03 06:45:14;;;;;;;3.30;2.13;;;;;;;21.25;48.66;101259.31;7395494;19;20071;-66
2022/07/03 06:47:43;;;;;;;3.22;2.45;;;;;;;21.34;47.86;101252.56;7396036;19;20028;-66
2022/07/03 06:50:12;;;;;;;3.20;2.05;;;;;;;21.42;48.19;101253.00;7397415;19;20057;-66
2022/07/03 06:52:40;;;;;;;4.35;2.10;;;;;;;21.52;47.99;101250.66;7396970;19;20010;-67
2022/07/03 06:55:10;;;;;;;2.67;2.15;;;;;;;21.60;47.45;101240.38;7394762;19;20384;-67
2022/07/03 06:57:38;;;;;;;2.58;1.75;;;;;;;21.70;47.40;101234.47;7395006;19;20395;-66
2022/07/03 07:00:08;;;;;;;2.60;2.13;;;;;;;21.80;46.95;101235.66;7396310;19;20015;-64
2022/07/03 07:02:39;;;;;;;4.45;2.35;;;;;;;21.90;46.20;101242.13;7396837;19;20376;-65
2022/07/03 07:05:09;;;;;;;2.13;1.90;;;;;;;21.97;46.38;101239.94;7396687;19;20498;-66
2022/07/03 07:07:37;;;;;;;6.40;2.83;;;;;;;22.04;46.75;101237.72;7394749;19;20418;-66
2022/07/03 07:10:07;;;;;;;2.17;1.98;;;;;;;22.11;46.27;101231.91;7396727;19;20019;-64
2022/07/03 07:12:35;;;;;;;4.07;1.98;;;;;;;22.19;46.60;101230.56;7396729;19;20022;-65
2022/07/03 07:15:04;;;;;;;3.03;1.90;;;;;;;22.27;46.09;101229.13;7394919;19;20039;-65
2022/07/03 07:17:32;;;;;;;2.15;1.88;;;;;;;22.36;45.71;101226.84;7394862;19;20022;-67
2022/07/03 07:20:03;;;;;;;6.05;1.98;;;;;;;22.44;45.76;101236.13;7396289;19;20074;-65
2022/07/03 07:22:32;;;;;;;2.90;1.90;;;;;;;22.54;45.17;101232.84;7396166;19;20015;-66
2022/07/03 07:25:00;;;;;;;4.07;1.90;;;;;;;22.61;45.03;101224.31;7395944;19;20015;-65
2022/07/03 07:27:29;;;;;;;2.22;2.03;;;;;;;22.68;45.33;101226.59;7395183;19;20377;-65
2022/07/03 07:29:58;;;;;;;2.30;2.10;;;;;;;22.77;44.88;101223.31;7396183;19;20070;-66
2022/07/03 07:32:26;;;;;;;2.80;2.10;;;;;;;22.85;44.51;101214.78;7392770;19;20022;-66
2022/07/03 07:34:55;;;;;;;2.08;1.88;;;;;;;22.93;44.67;101215.13;7396014;19;20074;-66
2022/07/03 07:37:26;;;;;;;2.92;1.83;;;;;;;23.01;44.14;101222.66;7394733;19;20025;-68
2022/07/03 07:39:54;;;;;;;2.20;2.00;;;;;;;23.07;44.09;101219.56;7396034;19;20031;-66
2022/07/03 07:42:24;;;;;;;3.90;2.38;;;;;;;23.13;43.83;101219.16;7394170;19;20510;-66
2022/07/03 07:44:52;;;;;;;3.35;2.55;;;;;;;23.18;44.05;101214.38;7394839;19;20014;-66
2022/07/03 07:47:21;;;;;;;7.18;3.53;;;;;;;23.27;43.99;101205.72;7393886;19;20083;-66
2022/07/03 07:49:50;;;;;;;3.28;2.00;;;;;;;23.35;43.38;101212.38;7393914;19;20018;-66
2022/07/03 07:52:19;;;;;;;1.75;1.63;;;;;;;23.42;43.40;101216.34;7393381;19;20488;-66
2022/07/03 07:54:50;;;;;;;3.15;2.13;;;;;;;23.48;42.90;101215.06;7393464;19;20529;-66
2022/07/03 07:57:18;;;;;;;2.03;1.77;;;;;;;23.52;42.40;101211.19;7393060;19;20023;-66
2022/07/03 07:59:47;;;;;;;1.75;1.60;;;;;;;23.57;42.21;101203.72;7393306;19;20022;-66
2022/07/03 08:07:37;;;;;;;4.70;1.90;;;;;;;23.71;41.81;101200.94;7394168;19;20037;-66
2022/07/03 08:10:09;;;;;;;3.83;2.08;;;;;;;23.79;41.94;101202.22;7393246;19;20019;-67
2022/07/03 08:12:38;;;;;;;3.13;2.25;;;;;;;23.83;41.56;101193.00;7393758;19;20018;-66
2022/07/03 08:15:07;;;;;;;2.70;2.00;;;;;;;23.86;41.30;101193.63;7393118;19;20091;-67
2022/07/03 08:17:36;;;;;;;2.20;2.00;;;;;;;23.91;41.05;101191.53;7393606;19;20383;-67
2022/07/03 08:20:04;;;;;;;2.28;2.05;;;;;;;23.97;40.85;101197.41;7392998;19;20360;-66
2022/07/03 08:22:33;;;;;;;5.50;2.03;;;;;;;24.03;40.65;101194.28;7392581;19;20078;-66
2022/07/03 08:25:01;;;;;;;2.05;1.88;;;;;;;24.08;40.60;101190.28;7393113;19;20073;-66
2022/07/03 08:27:32;;;;;;;2.10;1.90;;;;;;;24.13;40.53;101197.16;7392521;19;20022;-67
2022/07/03 08:30:01;;;;;;;3.90;2.00;;;;;;;24.18;40.18;101193.19;7394320;19;20024;-67
2022/07/03 08:32:29;;;;;;;2.72;1.98;;;;;;;24.23;40.15;101195.53;7394060;19;20074;-66
2022/07/03 08:34:58;;;;;;;1.50;1.35;;;;;;;24.28;39.65;101184.47;7394024;19;20047;-67
2022/07/03 08:37:28;;;;;;;1.92;1.80;;;;;;;24.31;39.67;101178.88;7393069;19;20074;-67
2022/07/03 08:39:56;;;;;;;2.22;2.00;;;;;;;24.32;39.16;101178.78;7393339;19;20518;-66
2022/07/03 08:42:26;;;;;;;2.05;1.85;;;;;;;24.37;39.75;101173.06;7391338;19;20388;-66
2022/07/03 08:44:58;;;;;;;2.67;1.63;;;;;;;24.44;39.14;101179.72;7400682;19;20011;-67
2022/07/03 08:47:29;;;;;;;2.65;1.98;;;;;;;24.47;39.00;101168.75;7400341;19;20032;-66
2022/07/03 08:49:58;;;;;;;3.33;1.65;;;;;;;24.51;38.82;101164.00;7401006;19;20477;-67
2022/07/03 08:52:28;;;;;;;2.50;1.83;;;;;;;24.52;38.61;101163.88;7398571;19;20019;-66
2022/07/03 08:54:57;;;;;;;4.57;2.38;;;;;;;24.55;38.43;101162.81;7398359;19;20035;-66
2022/07/03 08:57:26;;;;;;;2.15;1.85;;;;;;;24.59;38.33;101158.91;7398330;19;20103;-66
2022/07/03 08:59:59;;;;;;;3.70;1.75;;;;;;;24.63;37.62;101165.78;7400635;19;20027;-67
2022/07/03 09:02:28;;;;;;;2.60;1.80;;;;;;;24.69;38.32;101167.16;7397687;19;20481;-67
2022/07/03 09:04:57;;;;;;;3.72;2.65;;;;;;;24.75;38.26;101164.03;7400622;19;20411;-66
2022/07/03 09:07:26;;;;;;;2.08;1.63;;;;;;;24.80;37.59;101167.22;7398223;19;20045;-67
2022/07/03 09:09:55;;;;;;;6.88;2.78;;;;;;;24.86;37.46;101158.72;7398086;19;20078;-67
2022/07/03 09:12:24;;;;;;;3.97;1.80;;;;;;;24.94;36.96;101157.28;7400752;19;20022;-67
2022/07/03 09:14:53;;;;;;;2.50;1.88;;;;;;;24.98;36.64;101162.28;7397846;19;20015;-65
2022/07/03 09:17:24;;;;;;;1.50;1.33;;;;;;;25.06;36.44;101156.34;7397690;19;20031;-66
2022/07/03 09:19:53;;;;;;;2.00;1.80;;;;;;;25.12;36.39;101161.22;7398365;19;20018;-66
2022/07/03 09:22:26;;;;;;;2.38;1.80;;;;;;;25.18;35.74;101159.91;7398479;19;20036;-66
2022/07/03 09:24:55;;;;;;;;;;;;;;;25.24;36.49;101154.06;7401124;19;20023;-65
2022/07/03 09:27:25;;;;;;;1.92;1.80;;;;;;;25.31;36.25;101157.13;7397736;19;19919;-65
2022/07/03 09:30:00;;;;;;;1.70;1.60;;;;;;;25.36;35.94;101150.47;7398093;19;20026;-66
2022/07/03 09:32:34;;;;;;;2.13;1.60;;;;;;;25.43;35.50;101160.72;7399856;19;20014;-66
2022/07/03 09:35:15;;;;;;;3.40;1.85;;;;;;;25.49;35.32;101155.72;7397662;19;20018;-65
2022/07/03 09:37:44;;;;;;;2.08;1.70;;;;;;;25.55;35.37;101145.47;7397004;19;20018;-65
2022/07/03 09:40:13;;;;;;;3.40;1.67;;;;;;;25.58;35.27;101151.44;7396999;19;20019;-65
2022/07/03 09:42:41;;;;;;;2.75;1.85;;;;;;;25.63;35.38;101156.44;7396950;19;20018;-65
2022/07/03 09:45:11;;;;;;;1.80;1.50;;;;;;;25.66;35.54;101153.53;7399513;19;20078;-65
2022/07/03 09:47:42;;;;;;;2.67;1.45;;;;;;;25.73;35.18;101154.75;7396590;19;20499;-65
2022/07/03 09:50:12;;;;;;;2.28;1.60;;;;;;;25.81;35.22;101146.09;7399246;19;20030;-66
2022/07/03 09:52:42;;;;;;;3.05;1.60;;;;;;;25.88;34.62;101141.06;7396724;19;20010;-66
2022/07/03 09:55:20;;;;;;;2.17;1.65;;;;;;;25.89;34.53;101138.25;7396100;19;20022;-65
2022/07/03 09:58:02;;;;;;;3.20;1.60;;;;;;;25.94;34.74;101137.88;7395852;19;20021;-66
2022/07/03 10:00:33;;;;;;;3.70;1.60;;;;;;;25.96;34.57;101133.25;7398788;19;20017;-66
2022/07/03 10:03:05;;;;;;;1.48;1.33;;;;;;;25.99;34.57;101127.59;7397370;19;20026;-66
2022/07/03 10:05:36;;;;;;;2.07;1.13;;;;;;;26.05;34.38;101135.19;7397275;19;20026;-66
2022/07/03 10:08:06;;;;;;;1.77;1.33;;;;;;;26.13;34.00;101131.88;7397277;19;20805;-67
2022/07/03 10:10:36;;;;;;;3.72;1.38;;;;;;;26.20;33.59;101132.22;7398705;19;20033;-66
2022/07/03 10:13:06;;;;;;;1.20;1.10;;;;;;;26.25;33.30;101132.69;7398698;19;20027;-66
2022/07/03 10:15:37;;;;;;;2.53;1.30;;;;;;;26.25;33.44;101128.19;7395766;19;20074;-67
2022/07/03 10:18:11;;;;;;;1.90;1.40;;;;;;;26.23;33.36;101124.75;7395957;19;20018;-67
2022/07/03 10:20:41;;;;;;;;;;;;;;;26.23;33.39;101129.31;7399710;19;20018;-67
2022/07/03 10:23:10;;;;;;;2.17;1.40;;;;;;;26.25;33.47;101128.19;7396301;19;19978;-67
2022/07/03 10:25:42;;;;;;;2.65;1.20;;;;;;;26.28;33.37;101122.56;7396025;19;20098;-67
2022/07/03 10:28:14;;;;;;;2.33;1.42;;;;;;;26.31;33.54;101121.44;7395984;19;20032;-66
2022/07/03 10:30:45;;;;;;;1.35;1.25;;;;;;;26.38;33.09;101116.44;7396524;19;20042;-67
2022/07/03 10:33:17;;;;;;;1.40;1.25;;;;;;;26.42;33.01;101116.03;7397657;19;20484;-67
2022/07/03 10:35:47;;;;;;;1.45;1.23;;;;;;;26.47;33.01;101116.50;7398093;19;20032;-67
2022/07/03 10:38:42;;;;;;;3.88;1.40;;;;;;;26.52;32.59;101112.59;7396177;19;20035;-66
2022/07/03 10:46:41;;;;;;;5.65;2.20;;;;;;;26.76;32.15;101115.91;7396862;19;20018;-67
2022/07/03 10:49:13;;;;;;;3.00;1.50;;;;;;;26.85;31.75;101114.28;7395745;19;20022;-67
2022/07/03 10:51:56;;;;;;;1.83;1.50;;;;;;;26.96;31.11;101110.69;7396014;19;20094;-67
2022/07/03 10:54:26;;;;;;;2.92;1.55;;;;;;;27.05;31.21;101099.09;7398248;19;20359;-67
2022/07/03 10:57:10;;;;;;;1.55;1.45;;;;;;;27.12;31.04;101097.59;7396295;19;20014;-67
2022/07/03 11:00:21;;;;;;;1.73;0.95;;;;;;;27.17;30.92;101096.34;7397296;19;20018;-67
2022/07/03 11:02:52;;;;;;;2.40;2.10;;;;;;;27.26;31.70;101092.84;7395467;19;20518;-67
2022/07/03 11:05:39;;;;;;;2.47;1.23;;;;;;;27.39;31.25;101090.81;7394228;19;20045;-66
2022/07/03 11:08:15;;;;;;;1.40;1.30;;;;;;;27.52;30.93;101090.56;7395204;19;20025;-67
2022/07/03 11:11:54;;;;;;;2.67;1.23;;;;;;;27.66;30.83;101091.22;7396012;19;20019;-67
2022/07/03 11:13:35;;;;;;;2.47;1.40;;;;;;;27.80;30.60;101083.59;7395953;19;20418;-66
2022/07/03 11:16:03;;;;;;;3.20;1.30;;;;;;;27.94;29.84;101085.03;7396167;19;20504;-67
2022/07/03 11:18:34;;;;;;;2.95;1.40;;;;;;;28.08;29.57;101088.34;7394162;19;20481;-67
2022/07/03 11:21:18;;;;;;;2.58;1.20;;;;;;;28.22;29.65;101087.09;7396949;19;20097;-67
2022/07/03 11:24:18;;;;;;;1.85;1.30;;;;;;;28.37;29.01;101082.13;7395965;19;20010;-67
2022/07/03 11:26:46;;;;;;;5.22;1.42;;;;;;;28.51;29.15;101075.44;7395299;19;20501;-67
2022/07/03 11:29:30;;;;;;;1.83;1.13;;;;;;;28.63;28.62;101071.63;7393941;19;20015;-67
2022/07/03 11:31:59;;;;;;;3.85;1.95;;;;;;;28.73;29.18;101064.38;7395936;19;20018;-67
2022/07/03 11:34:27;;;;;;;1.98;1.45;;;;;;;28.84;28.85;101054.41;7395326;19;20170;-67
2022/07/03 11:36:59;;;;;;;3.28;2.03;;;;;;;28.95;28.83;101054.25;7393493;19;20502;-67
2022/07/03 11:39:28;;;;;;;2.40;2.00;;;;;;;29.10;28.98;101046.53;7394418;19;20022;-67
2022/07/03 11:41:57;;;;;;;2.45;1.88;;;;;;;29.26;28.69;101044.03;7395431;19;20497;-67
2022/07/03 11:44:27;;;;;;;1.95;1.42;;;;;;;29.45;28.23;101041.44;7395421;19;20022;-67
2022/07/03 11:46:58;;;;;;;3.60;1.77;;;;;;;29.58;28.17;101034.69;7393792;19;20078;-67
2022/07/03 11:49:27;;;;;;;4.72;1.60;;;;;;;29.77;28.13;101026.59;7394020;19;20049;-67
2022/07/03 11:52:01;;;;;;;1.70;1.35;;;;;;;29.99;27.79;101028.03;7395393;19;20014;-67
2022/07/03 11:54:33;;;;;;;1.88;1.20;;;;;;;30.22;27.25;101028.44;7396296;19;20541;-67
2022/07/03 11:57:09;;;;;;;2.88;1.40;;;;;;;30.46;27.01;101018.81;7394401;19;20037;-67
2022/07/03 11:59:38;;;;;;;1.20;1.10;;;;;;;30.69;26.70;101017.31;7393447;19;20485;-67